Latest Weather Observations for Delamere

IDD60801

Issued at 7:35 pm CST Thursday 2 October 2014 (issued every 30 minutes, with the page automatically refreshed every 10 minutes)

About weather observations | Map of weather stations | Latest weather observations for NT | Other Formats
Station Details ID: 014949 Name: DELAMERE WEAPONS RANGE Lat: -15.74 Lon: 131.92 Height: 221.0 m
Data from the previous 72 hours. | See also: Recent months at Delamere
Date/Time
CST
Temp
°C
App
Temp
°C
Dew
Point
Rel
Hum
%
Delta-T
°C
Wind Press
QNH
hPa
Press
MSL
hPa
Rain
since 9 am
mm
Dir
 
Spd
km/h
Gust
km/h
Spd
kts
Gust
kts
02/07:30pm 32.9 30.7 7.7 21 14.1 NE 9 13 5 7 1011.0 - 0.0
02/07:00pm 34.3 31.4 8.1 20 14.8 ENE 13 20 7 11 1010.7 - 0.0
02/06:30pm 35.1 31.2 7.2 18 15.6 E 17 24 9 13 1010.2 - 0.0
02/06:00pm 35.6 31.8 7.6 18 15.8 E 17 22 9 12 1009.7 1008.1 0.0
02/05:30pm 36.2 32.2 8.1 18 16.0 ESE 19 30 10 16 1009.3 - 0.0
02/05:00pm 36.4 32.2 8.3 18 16.1 E 20 33 11 18 1009.1 - 0.0
02/04:30pm 36.3 32.3 8.2 18 16.0 ENE 19 28 10 15 1009.2 - 0.0
02/04:00pm 36.5 32.3 8.4 18 16.1 E 20 32 11 17 1009.5 - 0.0
02/03:30pm 37.2 31.6 7.2 16 16.9 E 26 39 14 21 1009.7 - 0.0
02/03:00pm 36.7 31.0 8.5 18 16.2 ENE 28 41 15 22 1010.2 1008.6 0.0
02/02:30pm 36.5 31.8 9.2 19 15.8 E 24 39 13 21 1010.9 - 0.0
02/02:00pm 36.0 30.8 8.7 19 15.7 E 26 39 14 21 1011.4 - 0.0
02/01:30pm 36.2 30.4 8.1 18 16.0 ENE 28 43 15 23 1011.8 - 0.0
02/01:13pm 35.6 29.9 8.4 19 15.5 E 28 46 15 25 1012.0 - 0.0
02/01:00pm 35.2 30.8 10.3 22 14.6 ENE 24 39 13 21 1012.2 - 0.0
02/12:30pm 35.7 32.9 11.4 23 14.5 E 17 30 9 16 1012.8 - 0.0
02/12:00pm 34.0 31.3 11.8 26 13.3 NE 17 26 9 14 1013.2 1011.7 0.0
02/11:30am 33.1 31.1 12.7 29 12.3 ENE 15 41 8 22 1013.6 - 0.0
02/11:00am 31.9 31.0 13.6 32 11.1 NNE 11 20 6 11 1014.1 - 0.0
02/10:30am 31.4 29.5 14.1 35 10.6 N 17 26 9 14 1014.5 - 0.0
02/10:00am 31.3 30.7 17.6 44 8.8 NNE 17 24 9 13 1014.8 - 0.0
02/09:30am 29.6 28.1 16.4 45 8.3 N 19 28 10 15 1015.0 - 0.0
02/09:00am 29.2 28.9 17.4 49 7.5 N 15 22 8 12 1015.1 1013.5 0.0
02/08:30am 27.6 28.4 19.1 59 5.5 N 13 17 7 9 1014.9 - 0.0
02/08:00am 25.8 26.2 16.4 56 5.8 N 9 13 5 7 1014.7 - 0.0
02/07:30am 24.3 23.4 10.6 42 7.7 NE 6 9 3 5 1014.5 - 0.0
02/07:00am 23.4 22.1 9.8 42 7.5 ENE 7 11 4 6 1014.2 - 0.0
02/06:30am 22.7 21.3 9.5 43 7.2 NE 7 11 4 6 1013.5 - 0.0
02/06:00am 23.5 21.2 9.1 40 7.8 ENE 11 15 6 8 1013.4 1011.9 0.0
02/05:30am 24.5 22.0 9.6 39 8.2 N 13 15 7 8 1012.5 - 0.0
02/05:00am 23.5 21.8 9.9 42 7.5 N 9 13 5 7 1012.6 - 0.0
02/04:30am 23.9 21.8 9.9 41 7.7 NE 11 13 6 7 1012.3 - 0.0
02/04:00am 24.4 22.3 9.9 40 8.0 ENE 11 15 6 8 1012.2 - 0.0
02/03:30am 24.5 22.5 10.0 40 8.1 ENE 11 17 6 9 1011.8 - 0.0
02/03:00am 24.1 22.9 9.7 40 7.9 NNW 6 7 3 4 1011.4 1009.8 0.0
02/02:30am 25.3 24.2 10.0 38 8.5 N 6 7 3 4 1012.0 - 0.0
02/02:00am 26.1 24.4 9.9 36 9.1 E 9 13 5 7 1012.4 - 0.0
02/01:30am 26.9 25.5 9.7 34 9.6 E 7 11 4 6 1012.4 - 0.0
02/01:00am 27.7 25.7 10.0 33 10.0 E 11 19 6 10 1012.9 - 0.0
02/12:30am 28.8 25.9 9.5 30 10.9 NNE 15 22 8 12 1012.1 - 0.0
02/12:00am 29.1 25.9 9.8 30 10.9 NE 17 20 9 11 1012.5 1011.0 0.0
 
Date/Time
CST
Temp
°C
App
Temp
°C
Dew
Point
Rel
Hum
%
Delta-T
°C
Wind Press
QNH
hPa
Press
MSL
hPa
Rain
since 9 am
mm
Dir
 
Spd
km/h
Gust
km/h
Spd
kts
Gust
kts
01/11:30pm 29.5 26.1 10.6 31 10.9 NNE 19 22 10 12 1012.5 - 0.0
01/11:00pm 28.9 26.5 11.5 34 10.1 NE 15 20 8 11 1012.5 - 0.0
01/10:30pm 28.8 27.9 10.5 32 10.5 NE 6 7 3 4 1012.2 - 0.0
01/10:00pm 30.0 30.6 15.3 41 9.1 NE 6 9 3 5 1012.1 - 0.0
01/09:30pm 30.3 31.2 16.0 42 9.0 ENE 6 7 3 4 1011.9 - 0.0
01/09:00pm 31.4 31.4 13.6 33 10.8 ENE 6 7 3 4 1011.7 1010.1 0.0
01/08:30pm 31.9 31.3 13.6 32 11.1 ENE 9 11 5 6 1011.4 - 0.0
01/08:00pm 32.5 32.7 14.1 32 11.3 ENE 6 7 3 4 1010.9 - 0.0
01/07:30pm 33.4 33.0 12.9 28 12.4 NE 7 11 4 6 1010.6 - 0.0
01/07:00pm 34.5 33.1 12.2 26 13.4 ENE 11 15 6 8 1010.3 - 0.0
01/06:30pm 35.4 33.3 12.4 25 13.9 E 15 20 8 11 1009.9 - 0.0
01/06:00pm 35.8 32.8 12.1 24 14.3 E 19 26 10 14 1009.5 1008.0 0.0
01/05:30pm 36.6 34.0 12.1 23 14.8 E 17 26 9 14 1009.3 - 0.0
01/05:00pm 37.3 34.9 12.7 23 15.1 E 17 30 9 16 1009.2 - 0.0
01/04:30pm 36.5 33.3 11.3 22 15.1 ESE 19 32 10 17 1009.1 - 0.0
01/04:00pm 37.4 33.5 12.1 22 15.4 ESE 24 41 13 22 1009.3 - 0.0
01/03:30pm 37.3 34.1 12.0 22 15.3 E 20 35 11 19 1009.5 - 0.0
01/03:00pm 37.1 34.7 12.5 23 15.0 ESE 17 30 9 16 1010.1 1008.5 0.0
01/02:30pm 37.2 33.4 11.2 21 15.6 E 22 39 12 21 1010.5 - 0.0
01/02:00pm 36.8 33.1 11.6 22 15.2 ENE 22 33 12 18 1010.9 - 0.0
01/01:30pm 36.2 34.1 12.4 24 14.5 NE 15 30 8 16 1011.4 - 0.0
01/01:00pm 35.4 33.5 13.0 26 13.7 E 15 26 8 14 1011.9 - 0.0
01/12:30pm 34.0 33.7 15.4 32 11.7 N 11 17 6 9 1012.7 - 0.0
01/12:00pm 33.4 31.9 15.4 34 11.3 NNE 17 24 9 13 1013.6 1012.1 0.0
01/11:30am 33.3 33.4 16.6 36 10.7 N 11 26 6 14 1014.1 - 0.0
01/11:00am 32.0 31.5 15.9 38 10.1 NNE 13 22 7 12 1014.7 - 0.0
01/10:30am 31.1 30.6 17.0 42 9.0 NNE 15 24 8 13 1015.2 - 0.0
01/10:00am 30.3 30.2 17.0 44 8.5 NE 13 20 7 11 1015.5 - 0.0
01/09:30am 29.6 28.4 17.1 47 7.9 N 19 26 10 14 1015.6 - 0.0
01/09:00am 28.6 29.9 19.2 56 6.1 NNW 11 20 6 11 1015.6 1014.0 0.0
01/08:30am 27.4 28.5 19.7 63 5.0 NW 13 20 7 11 1015.5 - 0.0
01/08:00am 26.9 27.5 19.5 64 4.8 NNW 15 20 8 11 1015.4 - 0.0
01/07:30am 26.4 27.3 18.5 62 5.1 N 11 15 6 8 1015.1 - 0.0
01/07:00am 26.4 26.9 17.5 58 5.6 N 11 19 6 10 1014.6 - 0.0
01/06:30am 26.5 25.8 14.3 47 7.3 NNE 11 17 6 9 1014.0 - 0.0
01/06:00am 26.7 25.8 13.8 45 7.7 NNE 11 15 6 8 1013.5 1012.0 0.0
01/05:30am 27.0 26.1 13.7 44 7.9 NE 11 15 6 8 1013.3 - 0.0
01/05:00am 27.1 25.8 13.8 44 8.0 NNE 13 20 7 11 1012.9 - 0.0
01/04:30am 27.3 25.2 13.6 43 8.2 NNE 17 22 9 12 1012.6 - 0.0
01/04:00am 27.4 25.2 13.4 42 8.3 NNE 17 22 9 12 1012.3 - 0.0
01/03:30am 27.6 26.2 15.6 48 7.4 NE 17 26 9 14 1012.2 - 0.0
01/03:00am 27.7 26.6 15.4 47 7.6 NE 15 24 8 13 1012.3 1010.7 0.0
01/02:30am 27.7 26.5 15.0 45 7.8 ENE 15 22 8 12 1012.3 - 0.0
01/02:00am 28.2 26.5 14.8 44 8.2 NE 17 24 9 13 1012.4 - 0.0
01/01:30am 28.5 26.4 14.7 43 8.4 NE 19 26 10 14 1012.6 - 0.0
01/01:00am 28.5 26.6 15.1 44 8.2 NE 19 28 10 15 1012.6 - 0.0
01/12:30am 28.7 27.6 15.2 43 8.3 NE 15 20 8 11 1012.7 - 0.0
01/12:00am 29.6 27.2 15.3 41 8.9 NE 22 32 12 17 1012.6 1011.1 0.0
 
Date/Time
CST
Temp
°C
App
Temp
°C
Dew
Point
Rel
Hum
%
Delta-T
°C
Wind Press
QNH
hPa
Press
MSL
hPa
Rain
since 9 am
mm
Dir
 
Spd
km/h
Gust
km/h
Spd
kts
Gust
kts
30/11:30pm 28.3 28.2 13.4 40 8.9 NE 6 7 3 4 1012.5 - 0.0
30/11:00pm 29.5 29.5 14.1 39 9.4 NNE 7 9 4 5 1012.4 - 0.0
30/10:30pm 29.8 29.5 15.5 42 8.9 NE 11 17 6 9 1012.5 - 0.0
30/10:00pm 29.7 29.6 15.0 40 9.1 ENE 9 11 5 6 1012.4 - 0.0
30/09:30pm 30.2 30.6 16.2 42 8.8 ENE 9 11 5 6 1012.4 - 0.0
30/09:00pm 30.7 30.8 15.5 39 9.5 ENE 9 11 5 6 1012.1 1010.8 0.0
30/08:30pm 31.0 31.4 15.4 38 9.7 ENE 7 9 4 5 1011.9 - 0.0
30/08:00pm 31.7 31.5 13.5 33 11.0 E 7 9 4 5 1011.6 - 0.0
30/07:30pm 32.9 34.2 17.5 39 9.9 ENE 7 9 4 5 1011.3 - 0.0
30/07:00pm 34.0 33.4 13.5 29 12.6 E 9 11 5 6 1010.9 - 0.0
30/06:30pm 34.7 33.3 13.5 28 13.0 E 13 17 7 9 1010.5 - 0.0
30/06:00pm 35.3 34.7 13.5 27 13.4 ENE 9 13 5 7 1010.2 1008.9 0.0
30/05:30pm 35.3 34.3 13.5 27 13.4 ENE 11 17 6 9 1009.9 - 0.0
30/05:00pm 36.3 35.0 13.7 25 14.0 ENE 13 30 7 16 1009.5 - 0.0
30/04:30pm 35.9 33.5 12.8 25 14.1 E 17 26 9 14 1009.5 - 0.0
30/04:00pm 36.1 33.4 13.0 25 14.1 E 19 28 10 15 1009.5 - 0.0
30/03:30pm 35.9 35.3 13.4 26 13.9 SSE 9 17 5 9 1009.9 - 0.0
30/03:00pm 36.0 35.4 14.6 27 13.4 NNW 11 17 6 9 1010.1 1008.8 0.0
30/02:30pm 35.2 34.4 13.9 27 13.2 ESE 11 19 6 10 1010.5 - 0.0
30/02:00pm 35.4 35.2 14.6 28 13.0 E 9 17 5 9 1011.0 - 0.0
30/01:30pm 34.6 33.4 15.0 31 12.3 NNW 15 24 8 13 1011.4 - 0.0
30/01:00pm 34.3 33.2 15.2 31 12.0 NE 15 26 8 14 1012.0 - 0.0
30/12:30pm 33.5 33.2 15.5 34 11.3 ENE 11 19 6 10 1012.6 - 0.0
30/12:00pm 32.6 34.5 20.5 49 8.1 N 11 19 6 10 1013.2 1012.0 0.0
30/11:30am 32.2 32.7 16.5 39 10.0 NNW 9 22 5 12 1013.9 - 0.0
30/11:00am 31.2 30.5 16.4 41 9.4 N 15 26 8 14 1014.5 - 0.0
30/10:30am 30.3 30.9 20.2 54 6.7 N 17 22 9 12 1015.0 - 0.0
30/10:00am 29.8 28.7 17.3 47 8.0 NW 19 32 10 17 1015.3 - 0.0
30/09:30am 28.2 26.5 17.1 51 7.0 N 22 30 12 16 1015.4 - 0.0
30/09:00am 27.7 26.8 17.8 54 6.3 N 19 28 10 15 1015.4 1014.1 0.0
30/08:30am 26.5 28.0 21.3 73 3.5 N 15 24 8 13 1015.3 - 0.0
30/08:00am 24.8 26.1 19.4 72 3.5 N 11 17 6 9 1015.2 - 0.0
30/07:30am 23.0 23.0 17.2 70 3.6 N 13 17 7 9 1014.9 - 0.0
30/07:00am 21.8 22.1 16.1 70 3.5 NNE 9 11 5 6 1014.5 - 0.0
30/06:30am 21.6 22.0 16.3 72 3.2 NNE 9 13 5 7 1014.0 - 0.0
30/06:00am 22.5 21.9 15.6 65 4.2 NNE 13 17 7 9 1013.5 1012.3 0.0
30/05:30am 23.0 22.9 16.1 65 4.2 NNE 11 17 6 9 1013.0 - 0.0
30/05:00am 22.8 21.8 14.6 60 4.9 ENE 13 19 7 10 1012.5 - 0.0
30/04:30am 23.1 22.1 13.3 54 5.7 ENE 11 13 6 7 1012.2 - 0.0
30/04:00am 23.9 23.0 13.7 53 6.0 ENE 11 13 6 7 1012.1 - 0.0
30/03:30am 24.9 23.1 12.2 45 7.3 NE 13 17 7 9 1012.2 - 0.0
30/03:00am 24.9 23.4 10.7 40 8.0 NE 9 15 5 8 1012.1 1010.8 0.0
30/02:30am 26.1 24.0 11.1 39 8.6 N 13 19 7 10 1012.2 - 0.0
30/02:00am 26.8 24.4 11.3 38 8.9 N 15 28 8 15 1012.0 - 0.0
30/01:30am 26.0 23.7 8.9 34 9.4 NNE 11 17 6 9 1011.8 - 0.0
30/01:00am 26.7 23.9 8.6 32 9.9 NE 13 19 7 10 1011.8 - 0.0
30/12:30am 25.9 24.3 8.0 32 9.7 NNE 6 9 3 5 1011.8 - 0.0
30/12:00am 26.3 24.4 7.4 30 10.1 NE 7 9 4 5 1012.0 1010.7 0.0
 
Date/Time
CST
Temp
°C
App
Temp
°C
Dew
Point
Rel
Hum
%
Delta-T
°C
Wind Press
QNH
hPa
Press
MSL
hPa
Rain
since 9 am
mm
Dir
 
Spd
km/h
Gust
km/h
Spd
kts
Gust
kts
29/11:30pm 27.9 25.8 8.2 29 10.8 NE 9 11 5 6 1012.0 - 0.0
29/11:00pm 27.4 25.4 8.8 31 10.3 ENE 9 15 5 8 1012.0 - 0.0
29/10:30pm 26.8 24.9 9.2 33 9.8 NNE 9 11 5 6 1011.9 - 0.0
29/10:00pm 27.3 27.2 9.6 33 9.9 CALM 0 0 0 0 1011.9 - 0.0
29/09:30pm 28.1 27.1 10.3 33 10.1 NE 6 7 3 4 1011.7 - 0.0
29/09:00pm 28.4 27.3 10.1 32 10.4 NNE 6 13 3 7 1011.5 1010.2 0.0
29/08:30pm 29.1 27.8 9.3 29 11.1 NNE 6 7 3 4 1011.1 - 0.0
29/08:00pm 30.1 30.0 9.6 28 11.6 CALM 0 0 0 0 1010.8 - 0.0

Other Formats:

Comma delimited format used in spreadsheet applications
http://www.bom.gov.au/fwo/IDD60801/IDD60801.94225.axf

JavaScript Object Notation format (JSON) in row-major order
http://www.bom.gov.au/fwo/IDD60801/IDD60801.94225.json